createdAt,value
2022-10-19T00:00:50.749Z,8.60
2022-10-19T00:03:22.298Z,8.50
2022-10-19T00:05:51.251Z,8.50
2022-10-19T00:08:19.139Z,8.40
2022-10-19T00:10:48.564Z,8.40
2022-10-19T00:13:16.491Z,8.30
2022-10-19T00:15:45.115Z,8.30
2022-10-19T00:18:12.987Z,8.20
2022-10-19T00:20:40.870Z,8.20
2022-10-19T00:23:08.808Z,8.10
2022-10-19T00:25:36.960Z,8.10
2022-10-19T00:28:06.529Z,8.10
2022-10-19T00:30:38.036Z,8.00
2022-10-19T00:33:06.005Z,9.90
2022-10-19T00:35:33.907Z,8.00
2022-10-19T00:38:01.806Z,8.00
2022-10-19T00:40:29.656Z,8.10
2022-10-19T00:42:57.996Z,8.10
2022-10-19T00:45:27.294Z,7.70
2022-10-19T00:47:55.578Z,8.20
2022-10-19T00:50:23.679Z,8.30
2022-10-19T00:52:51.594Z,8.30
2022-10-19T00:55:19.759Z,8.40
2022-10-19T00:57:47.658Z,8.40
2022-10-19T01:00:15.716Z,8.40
2022-10-19T01:02:44.982Z,8.50
2022-10-19T01:05:13.343Z,8.50
2022-10-19T01:07:41.279Z,8.50
2022-10-19T01:10:10.423Z,8.50
2022-10-19T01:13:07.906Z,8.40
2022-10-19T01:15:42.922Z,8.70
2022-10-19T01:18:21.403Z,8.20
2022-10-19T01:21:18.163Z,8.10
2022-10-19T01:24:24.647Z,8.00
2022-10-19T01:27:28.615Z,8.00
2022-10-19T01:30:17.573Z,7.80
2022-10-19T01:33:08.066Z,7.80
2022-10-19T01:35:43.036Z,7.70
2022-10-19T01:38:21.017Z,7.60
2022-10-19T01:40:56.860Z,7.60
2022-10-19T01:43:34.022Z,7.60
2022-10-19T01:46:11.944Z,7.60
2022-10-19T01:48:43.056Z,7.60
2022-10-19T01:51:15.871Z,7.60
2022-10-19T01:53:48.888Z,7.70
2022-10-19T01:56:21.029Z,7.80
2022-10-19T01:58:51.471Z,7.90
2022-10-19T02:01:22.559Z,9.60
2022-10-19T02:03:51.865Z,8.00
2022-10-19T02:06:20.432Z,9.80
2022-10-19T02:08:50.270Z,8.20
2022-10-19T02:11:19.457Z,8.30
2022-10-19T02:13:50.655Z,8.30
2022-10-19T02:16:24.943Z,8.40
2022-10-19T02:18:54.300Z,8.30
2022-10-19T02:21:22.330Z,8.50
2022-10-19T02:23:51.930Z,8.60
2022-10-19T02:26:22.327Z,8.60
2022-10-19T02:28:51.126Z,8.60
2022-10-19T02:31:19.129Z,8.70
2022-10-19T02:33:48.499Z,8.70
2022-10-19T02:36:16.451Z,8.80
2022-10-19T02:38:44.336Z,8.80
2022-10-19T02:41:18.711Z,8.80
2022-10-19T02:43:51.136Z,8.90
2022-10-19T02:46:24.332Z,10.00
2022-10-19T02:48:55.119Z,9.00
2022-10-19T02:51:30.496Z,9.00
2022-10-19T02:54:01.149Z,9.10
2022-10-19T02:56:32.354Z,9.10
2022-10-19T02:59:00.442Z,9.20
2022-10-19T03:01:28.539Z,10.20
2022-10-19T03:03:57.880Z,9.20
2022-10-19T03:06:25.862Z,9.20
2022-10-19T03:08:53.719Z,9.20
2022-10-19T03:11:21.590Z,10.90
2022-10-19T03:13:49.464Z,9.30
2022-10-19T03:16:17.324Z,10.50
2022-10-19T03:18:45.229Z,9.40
2022-10-19T03:21:14.958Z,10.30
2022-10-19T03:23:43.151Z,9.40
2022-10-19T03:26:15.184Z,9.40
2022-10-19T03:28:43.425Z,9.40
2022-10-19T03:31:11.485Z,10.40
2022-10-19T03:33:39.479Z,9.40
2022-10-19T03:36:23.429Z,9.50
2022-10-19T03:38:52.563Z,9.50
2022-10-19T03:41:20.713Z,9.50
2022-10-19T03:43:49.009Z,10.60
2022-10-19T03:46:17.166Z,9.50
2022-10-19T03:48:45.388Z,9.50
2022-10-19T03:51:14.930Z,9.50
2022-10-19T03:53:44.755Z,9.60
2022-10-19T03:56:14.832Z,9.60
2022-10-19T03:58:44.369Z,9.60
2022-10-19T04:01:14.391Z,9.50
2022-10-19T04:03:42.395Z,9.60
2022-10-19T04:06:16.927Z,9.50
2022-10-19T04:08:50.159Z,9.50
2022-10-19T04:11:20.088Z,9.50
2022-10-19T04:13:49.880Z,9.50
2022-10-19T04:16:18.013Z,9.40
2022-10-19T04:18:45.882Z,9.40
2022-10-19T04:21:22.774Z,9.40
2022-10-19T04:23:53.927Z,10.20
2022-10-19T04:26:22.096Z,9.40
2022-10-19T04:28:50.299Z,9.40
2022-10-19T04:31:18.262Z,9.40
2022-10-19T04:36:14.249Z,9.40
2022-10-19T04:38:42.158Z,9.50
2022-10-19T04:41:13.227Z,9.50
2022-10-19T04:43:41.492Z,10.50
2022-10-19T04:46:13.016Z,9.40
2022-10-19T04:48:42.096Z,9.40
2022-10-19T04:51:10.872Z,9.40
2022-10-19T04:53:40.206Z,9.40
2022-10-19T04:56:10.191Z,9.40
2022-10-19T04:58:39.416Z,9.40
2022-10-19T05:01:10.702Z,9.40
2022-10-19T05:03:38.783Z,9.40
2022-10-19T05:06:07.669Z,9.40
2022-10-19T05:08:36.480Z,9.40
2022-10-19T05:11:06.524Z,10.60
2022-10-19T05:13:34.818Z,9.40
2022-10-19T05:16:07.113Z,11.00
2022-10-19T05:18:35.376Z,9.40
2022-10-19T05:21:04.983Z,9.50
2022-10-19T05:26:07.988Z,10.60
2022-10-19T05:28:36.317Z,9.50
2022-10-19T05:31:10.408Z,9.60
2022-10-19T05:33:38.922Z,9.60
2022-10-19T05:36:18.368Z,9.60
2022-10-19T05:38:47.403Z,9.60
2022-10-19T05:41:15.850Z,9.60
2022-10-19T05:43:44.144Z,9.60
2022-10-19T05:46:17.424Z,9.60
2022-10-19T05:48:45.667Z,10.00
2022-10-19T05:51:15.694Z,9.70
2022-10-19T05:53:44.098Z,9.70
2022-10-19T05:56:15.539Z,9.70
2022-10-19T05:58:43.733Z,10.50
2022-10-19T06:01:13.938Z,9.80
2022-10-19T06:03:42.242Z,11.80
2022-10-19T06:06:10.803Z,9.80
2022-10-19T06:08:39.899Z,9.80
2022-10-19T06:11:09.524Z,9.80
2022-10-19T06:13:38.155Z,9.80
2022-10-19T06:16:07.956Z,9.80
2022-10-19T06:18:37.799Z,9.80
2022-10-19T06:21:07.513Z,9.90
2022-10-19T06:23:36.106Z,9.90
2022-10-19T06:26:05.867Z,10.70
2022-10-19T06:28:33.866Z,10.00
2022-10-19T06:31:02.094Z,10.00
2022-10-19T06:33:31.489Z,10.00
2022-10-19T06:36:08.270Z,10.00
2022-10-19T06:38:36.232Z,10.10
2022-10-19T06:41:04.377Z,10.10
2022-10-19T06:43:32.336Z,10.10
2022-10-19T06:46:04.318Z,10.20
2022-10-19T06:48:32.175Z,10.20
2022-10-19T06:51:00.725Z,10.20
2022-10-19T06:53:30.271Z,10.20
2022-10-19T06:55:59.210Z,10.30
2022-10-19T06:58:27.328Z,10.40
2022-10-19T07:00:58.879Z,10.40
2022-10-19T07:03:27.215Z,10.50
2022-10-19T07:05:55.718Z,10.50
2022-10-19T07:08:24.563Z,10.60
2022-10-19T07:10:54.989Z,10.60
2022-10-19T07:13:23.031Z,10.70
2022-10-19T07:15:50.919Z,10.80
2022-10-19T07:18:18.787Z,10.80
2022-10-19T07:20:55.440Z,10.80
2022-10-19T07:23:23.422Z,10.90
2022-10-19T07:25:53.854Z,10.90
2022-10-19T07:28:22.655Z,11.00
2022-10-19T07:30:50.530Z,11.00
2022-10-19T07:35:51.306Z,11.10
2022-10-19T07:38:19.156Z,11.20
2022-10-19T07:40:47.551Z,11.20
2022-10-19T07:43:16.869Z,11.30
2022-10-19T07:45:44.763Z,11.40
2022-10-19T07:48:12.628Z,11.60
2022-10-19T07:50:40.488Z,11.50
2022-10-19T07:53:08.351Z,11.60
2022-10-19T07:55:36.234Z,11.60
2022-10-19T07:58:04.117Z,11.60
2022-10-19T08:00:33.923Z,11.70
2022-10-19T08:03:43.204Z,11.80
2022-10-19T08:05:49.755Z,11.80
2022-10-19T08:08:17.601Z,12.00
2022-10-19T08:10:45.471Z,12.00
2022-10-19T08:13:13.358Z,12.10
2022-10-19T08:15:42.541Z,12.10
2022-10-19T08:18:11.422Z,12.10
2022-10-19T08:20:42.263Z,12.50
2022-10-19T08:23:10.123Z,12.10
2022-10-19T08:25:38.215Z,12.10
2022-10-19T08:28:06.105Z,12.10
2022-10-19T08:30:35.841Z,12.60
2022-10-19T08:33:07.265Z,12.20
2022-10-19T08:35:35.787Z,12.10
2022-10-19T08:38:03.645Z,12.20
2022-10-19T08:40:32.127Z,12.20
2022-10-19T08:43:05.710Z,12.30
2022-10-19T08:48:26.090Z,12.40
2022-10-19T08:50:55.411Z,12.40
2022-10-19T08:53:32.289Z,12.50
2022-10-19T08:56:14.986Z,13.50
2022-10-19T08:58:57.854Z,12.50
2022-10-19T09:01:37.681Z,12.50
2022-10-19T09:04:13.472Z,12.90
2022-10-19T09:06:50.594Z,12.50
2022-10-19T09:09:21.694Z,12.50
2022-10-19T09:11:52.347Z,12.60
2022-10-19T09:14:29.066Z,12.60
2022-10-19T09:16:59.401Z,12.60
2022-10-19T09:19:31.931Z,12.80
2022-10-19T09:22:03.843Z,13.20
2022-10-19T09:24:39.860Z,13.00
2022-10-19T09:27:17.027Z,13.00
2022-10-19T09:29:48.738Z,13.00
2022-10-19T09:32:23.012Z,13.00
2022-10-19T09:34:53.746Z,13.20
2022-10-19T09:37:26.242Z,13.10
2022-10-19T09:39:55.581Z,13.50
2022-10-19T09:42:28.993Z,13.30
2022-10-19T09:44:58.041Z,13.30
2022-10-19T09:47:35.179Z,13.30
2022-10-19T09:50:20.188Z,13.20
2022-10-19T09:52:49.357Z,13.20
2022-10-19T09:55:36.770Z,13.60
2022-10-19T09:58:07.481Z,13.50
2022-10-19T10:00:39.529Z,13.40
2022-10-19T10:03:08.536Z,13.40
2022-10-19T10:05:40.072Z,13.50
2022-10-19T10:08:17.923Z,13.50
2022-10-19T10:10:49.089Z,13.70
2022-10-19T10:13:19.566Z,13.70
2022-10-19T10:15:50.934Z,13.70
2022-10-19T10:18:20.139Z,13.90
2022-10-19T10:21:03.836Z,14.10
2022-10-19T10:23:36.392Z,14.00
2022-10-19T10:26:06.270Z,14.20
2022-10-19T10:28:34.137Z,14.20
2022-10-19T10:31:03.952Z,13.90
2022-10-19T10:33:44.221Z,13.80
2022-10-19T10:36:14.392Z,14.20
2022-10-19T10:38:45.915Z,13.70
2022-10-19T10:41:15.935Z,13.80
2022-10-19T10:43:53.494Z,14.30
2022-10-19T10:46:23.842Z,13.70
2022-10-19T10:48:57.888Z,13.50
2022-10-19T10:51:35.007Z,13.50
2022-10-19T10:54:20.147Z,13.60
2022-10-19T10:57:13.166Z,13.60
2022-10-19T10:59:50.144Z,13.60
2022-10-19T11:02:32.996Z,13.70
2022-10-19T11:05:05.339Z,13.80
2022-10-19T11:07:36.898Z,14.80
2022-10-19T11:10:09.976Z,13.80
2022-10-19T11:12:42.562Z,14.00
2022-10-19T11:15:17.788Z,14.80
2022-10-19T11:17:56.669Z,14.20
2022-10-19T11:20:28.547Z,14.70
2022-10-19T11:23:05.477Z,14.10
2022-10-19T11:25:43.635Z,14.10
2022-10-19T11:28:27.441Z,14.00
2022-10-19T11:31:03.223Z,14.10
2022-10-19T11:33:48.033Z,13.90
2022-10-19T11:36:30.511Z,15.10
2022-10-19T11:39:26.405Z,14.70
2022-10-19T11:42:07.702Z,13.80
2022-10-19T11:44:45.702Z,14.00
2022-10-19T11:47:35.370Z,14.20
2022-10-19T11:50:12.930Z,14.50
2022-10-19T11:52:50.338Z,14.60
2022-10-19T11:55:31.435Z,14.90
2022-10-19T11:58:08.023Z,15.10
2022-10-19T12:00:47.520Z,15.40
2022-10-19T12:03:43.096Z,15.40
2022-10-19T12:06:20.064Z,15.50
2022-10-19T12:09:05.337Z,15.30
2022-10-19T12:11:48.339Z,15.30
2022-10-19T12:14:23.395Z,15.30
2022-10-19T12:16:55.458Z,15.30
2022-10-19T12:19:27.118Z,15.60
2022-10-19T12:21:59.375Z,15.30
2022-10-19T12:24:28.638Z,15.30
2022-10-19T12:26:59.833Z,15.40
2022-10-19T12:29:30.478Z,15.40
2022-10-19T12:32:00.548Z,15.40
2022-10-19T12:34:38.106Z,15.40
2022-10-19T12:37:12.360Z,15.50
2022-10-19T12:39:45.829Z,15.50
2022-10-19T12:42:24.649Z,15.50
2022-10-19T12:45:30.319Z,15.70
2022-10-19T12:48:19.019Z,15.70
2022-10-19T12:51:15.816Z,15.60
2022-10-19T12:53:47.645Z,15.40
2022-10-19T12:56:21.023Z,15.30
2022-10-19T12:58:55.026Z,15.30
2022-10-19T13:01:26.622Z,15.30
2022-10-19T13:04:08.655Z,15.40
2022-10-19T13:06:39.190Z,15.40
2022-10-19T13:09:09.535Z,15.30
2022-10-19T13:11:38.651Z,15.30
2022-10-19T13:14:43.186Z,15.10
2022-10-19T13:17:12.221Z,14.90
2022-10-19T13:19:40.082Z,14.80
2022-10-19T13:22:27.568Z,14.70
2022-10-19T13:25:23.513Z,14.50
2022-10-19T13:27:52.442Z,14.50
2022-10-19T13:30:55.447Z,14.50
2022-10-19T13:33:53.407Z,14.40
2022-10-19T13:36:30.475Z,14.30
2022-10-19T13:39:16.246Z,14.30
2022-10-19T13:41:50.888Z,14.20
2022-10-19T13:44:26.767Z,14.10
2022-10-19T13:47:09.429Z,14.00
2022-10-19T13:49:57.882Z,13.90
2022-10-19T13:52:47.833Z,14.10
2022-10-19T13:55:34.963Z,13.80
2022-10-19T13:58:20.386Z,13.80
2022-10-19T14:01:05.707Z,13.70
2022-10-19T14:03:46.408Z,13.70
2022-10-19T14:06:27.519Z,13.60
2022-10-19T14:09:30.222Z,13.50
2022-10-19T14:12:06.834Z,13.40
2022-10-19T14:19:52.294Z,13.10
2022-10-19T14:22:29.894Z,13.10
2022-10-19T14:25:18.605Z,13.20
2022-10-19T14:27:47.423Z,13.10
2022-10-19T14:30:23.710Z,13.10
2022-10-19T14:32:52.898Z,13.00
2022-10-19T14:35:24.131Z,13.00
2022-10-19T14:37:53.633Z,13.00
2022-10-19T14:40:28.359Z,12.90
2022-10-19T14:42:57.778Z,12.80
2022-10-19T14:45:28.152Z,12.70
2022-10-19T14:48:01.469Z,12.70
2022-10-19T14:50:35.044Z,12.60
2022-10-19T14:53:17.527Z,12.60
2022-10-19T14:55:45.579Z,12.50
2022-10-19T14:58:18.031Z,12.50
2022-10-19T15:00:48.612Z,12.40
2022-10-19T15:03:23.327Z,12.40
2022-10-19T15:05:56.357Z,12.50
2022-10-19T15:08:33.847Z,12.30
2022-10-19T15:11:02.056Z,12.20
2022-10-19T15:13:33.996Z,12.20
2022-10-19T15:16:02.362Z,12.20
2022-10-19T15:18:48.805Z,12.20
2022-10-19T15:21:21.027Z,12.10
2022-10-19T15:23:51.467Z,12.10
2022-10-19T15:26:21.957Z,12.00
2022-10-19T15:28:50.539Z,12.00
2022-10-19T15:31:20.731Z,11.90
2022-10-19T15:33:51.321Z,11.90
2022-10-19T15:36:20.592Z,11.90
2022-10-19T15:39:11.374Z,11.90
2022-10-19T15:41:47.632Z,11.80
2022-10-19T15:44:32.274Z,11.70
2022-10-19T15:47:19.837Z,11.70
2022-10-19T15:49:55.581Z,11.60
2022-10-19T15:52:24.894Z,11.50
2022-10-19T15:54:56.860Z,11.40
2022-10-19T15:57:30.614Z,11.30
2022-10-19T16:00:00.225Z,11.20
2022-10-19T16:02:28.299Z,11.50
2022-10-19T16:04:56.679Z,11.00
2022-10-19T16:07:28.535Z,11.00
2022-10-19T16:09:58.566Z,10.90
2022-10-19T16:12:27.330Z,10.80
2022-10-19T16:14:55.253Z,10.70
2022-10-19T16:17:23.602Z,10.60
2022-10-19T16:19:52.126Z,10.60
2022-10-19T16:22:20.043Z,10.50
2022-10-19T16:24:47.944Z,10.40
2022-10-19T16:27:17.376Z,11.00
2022-10-19T16:29:45.869Z,11.00
2022-10-19T16:32:13.815Z,10.10
2022-10-19T16:34:42.077Z,10.00
2022-10-19T16:37:09.981Z,10.00
2022-10-19T16:39:37.965Z,9.90
2022-10-19T16:42:05.834Z,9.80
2022-10-19T16:44:35.158Z,9.70
2022-10-19T16:47:03.237Z,9.70
2022-10-19T16:49:31.375Z,9.60
2022-10-19T16:52:00.709Z,9.50
2022-10-19T16:54:30.453Z,9.40
2022-10-19T16:56:58.335Z,9.40
2022-10-19T16:59:26.369Z,9.30
2022-10-19T17:01:55.720Z,9.20
2022-10-19T17:04:23.689Z,9.20
2022-10-19T17:06:51.550Z,9.10
2022-10-19T17:12:08.339Z,9.00
2022-10-19T17:14:37.126Z,8.90
2022-10-19T17:17:06.485Z,8.90
2022-10-19T17:19:35.057Z,8.80
2022-10-19T17:22:03.511Z,8.70
2022-10-19T17:24:31.490Z,8.70
2022-10-19T17:27:02.601Z,8.60
2022-10-19T17:29:30.944Z,8.50
2022-10-19T17:31:59.317Z,8.40
2022-10-19T17:34:28.577Z,8.30
2022-10-19T17:36:56.457Z,8.20
2022-10-19T17:39:28.983Z,8.10
2022-10-19T17:42:01.474Z,8.10
2022-10-19T17:44:31.258Z,8.50
2022-10-19T17:47:00.026Z,9.40
2022-10-19T17:49:29.832Z,7.90
2022-10-19T17:51:58.006Z,7.80
2022-10-19T17:54:25.946Z,7.70
2022-10-19T17:56:53.993Z,7.70
2022-10-19T17:59:30.184Z,7.60
2022-10-19T18:02:03.158Z,7.50
2022-10-19T18:04:32.476Z,7.70
2022-10-19T18:07:00.387Z,7.40
2022-10-19T18:09:28.278Z,7.30
2022-10-19T18:11:56.138Z,7.30
2022-10-19T18:14:23.994Z,7.20
2022-10-19T18:16:52.043Z,7.20
2022-10-19T18:19:20.074Z,7.20
2022-10-19T18:21:49.703Z,7.10
2022-10-19T18:24:19.984Z,7.10
2022-10-19T18:26:48.886Z,7.00
2022-10-19T18:29:19.139Z,7.10
2022-10-19T18:31:51.279Z,6.90
2022-10-19T18:34:20.883Z,6.90
2022-10-19T18:36:50.471Z,6.90
2022-10-19T18:39:18.994Z,6.90
2022-10-19T18:41:48.452Z,7.10
2022-10-19T18:44:16.331Z,7.00
2022-10-19T18:46:45.362Z,7.00
2022-10-19T18:49:13.551Z,7.20
2022-10-19T18:51:41.438Z,7.40
2022-10-19T18:54:12.001Z,6.90
2022-10-19T18:56:39.887Z,8.40
2022-10-19T18:59:07.735Z,7.00
2022-10-19T19:01:35.625Z,7.00
2022-10-19T19:04:08.398Z,7.00
2022-10-19T19:06:36.960Z,7.00
2022-10-19T19:09:08.163Z,7.00
2022-10-19T19:11:40.691Z,9.00
2022-10-19T19:14:11.968Z,7.30
2022-10-19T19:16:40.640Z,6.90
2022-10-19T19:19:08.667Z,7.00
2022-10-19T19:21:38.273Z,7.00
2022-10-19T19:24:08.490Z,7.10
2022-10-19T19:26:41.056Z,7.20
2022-10-19T19:29:09.457Z,9.00
2022-10-19T19:31:37.407Z,7.30
2022-10-19T19:34:09.165Z,7.30
2022-10-19T19:36:37.877Z,7.30
2022-10-19T19:39:06.785Z,7.30
2022-10-19T19:41:34.630Z,7.30
2022-10-19T19:44:03.936Z,8.80
2022-10-19T19:46:32.235Z,9.30
2022-10-19T19:49:01.832Z,7.30
2022-10-19T19:51:31.806Z,7.30
2022-10-19T19:53:59.960Z,7.30
2022-10-19T19:56:28.775Z,7.30
2022-10-19T19:58:58.054Z,7.40
2022-10-19T20:01:27.799Z,7.50
2022-10-19T20:03:55.790Z,7.50
2022-10-19T20:06:25.953Z,7.60
2022-10-19T20:08:54.461Z,7.70
2022-10-19T20:11:22.656Z,7.70
2022-10-19T20:13:50.693Z,7.80
2022-10-19T20:16:23.817Z,7.80
2022-10-19T20:18:59.675Z,7.80
2022-10-19T20:21:27.680Z,8.30
2022-10-19T20:23:55.562Z,7.80
2022-10-19T20:26:24.956Z,7.80
2022-10-19T20:28:53.300Z,7.70
2022-10-19T20:31:22.032Z,7.70
2022-10-19T20:33:50.208Z,7.70
2022-10-19T20:36:21.921Z,7.70
2022-10-19T20:38:51.534Z,7.70
2022-10-19T20:41:20.759Z,7.60
2022-10-19T20:43:48.636Z,9.60
2022-10-19T20:46:18.736Z,7.50
2022-10-19T20:48:46.993Z,7.40
2022-10-19T20:51:16.936Z,7.30
2022-10-19T20:53:47.997Z,7.20
2022-10-19T20:56:18.070Z,7.10
2022-10-19T20:58:47.061Z,7.00
2022-10-19T21:01:17.259Z,6.90
2022-10-19T21:03:47.256Z,6.80
2022-10-19T21:06:15.371Z,6.70
2022-10-19T21:08:43.460Z,6.60
2022-10-19T21:11:17.546Z,7.10
2022-10-19T21:13:46.397Z,6.50
2022-10-19T21:16:16.036Z,6.40
2022-10-19T21:18:44.833Z,6.30
2022-10-19T21:21:14.893Z,6.70
2022-10-19T21:23:43.288Z,6.20
2022-10-19T21:26:11.208Z,6.30
2022-10-19T21:28:41.437Z,7.40
2022-10-19T21:31:10.632Z,6.10
2022-10-19T21:33:38.551Z,5.90
2022-10-19T21:36:07.834Z,5.90
2022-10-19T21:38:36.157Z,5.80
2022-10-19T21:41:06.371Z,6.80
2022-10-19T21:43:35.486Z,5.70
2022-10-19T21:46:06.498Z,5.70
2022-10-19T21:48:35.498Z,5.60
2022-10-19T21:51:13.879Z,6.70
2022-10-19T21:53:41.733Z,5.60
2022-10-19T21:56:09.607Z,5.80
2022-10-19T21:58:37.467Z,5.60
2022-10-19T22:01:07.566Z,5.60
2022-10-19T22:03:35.922Z,5.70
2022-10-19T22:06:03.840Z,6.00
2022-10-19T22:08:31.792Z,5.90
2022-10-19T22:10:59.911Z,6.40
2022-10-19T22:13:27.771Z,6.70
2022-10-19T22:15:55.640Z,6.00
2022-10-19T22:18:24.954Z,6.60
2022-10-19T22:20:52.828Z,6.00
2022-10-19T22:23:20.746Z,6.00
2022-10-19T22:25:48.594Z,6.40
2022-10-19T22:28:16.456Z,6.00
2022-10-19T22:30:45.113Z,6.20
2022-10-19T22:33:13.169Z,6.10
2022-10-19T22:35:42.457Z,6.10
2022-10-19T22:38:10.326Z,6.10
2022-10-19T22:40:38.222Z,6.00
2022-10-19T22:43:06.845Z,5.90
2022-10-19T22:45:34.853Z,5.90
2022-10-19T22:48:02.749Z,6.20
2022-10-19T22:50:30.623Z,6.70
2022-10-19T22:52:59.941Z,6.70
2022-10-19T22:55:27.829Z,5.60
2022-10-19T22:57:55.674Z,6.20
2022-10-19T23:00:23.582Z,7.10
2022-10-19T23:02:51.435Z,5.50
2022-10-19T23:05:19.609Z,5.50
2022-10-19T23:07:47.515Z,5.70
2022-10-19T23:10:16.919Z,6.60
2022-10-19T23:12:44.785Z,5.40
2022-10-19T23:15:12.677Z,5.50
2022-10-19T23:17:40.525Z,6.90
2022-10-19T23:20:09.567Z,5.40
2022-10-19T23:22:37.528Z,5.40
2022-10-19T23:25:06.267Z,6.70
2022-10-19T23:27:35.752Z,5.60
2022-10-19T23:30:04.780Z,5.60
2022-10-19T23:32:32.631Z,5.70
2022-10-19T23:35:00.550Z,5.70
2022-10-19T23:37:28.439Z,5.80
2022-10-19T23:39:56.310Z,6.60
2022-10-19T23:42:24.184Z,5.90
2022-10-19T23:44:53.455Z,5.90
2022-10-19T23:47:21.315Z,7.10
2022-10-19T23:49:49.168Z,6.50
2022-10-19T23:52:17.055Z,6.00
2022-10-19T23:54:45.029Z,6.30
2022-10-19T23:57:12.914Z,6.00
2022-10-19T23:59:40.766Z,6.00
